Terminal Aerodrome Forecast
Issued by NWS

Home | Current Version | Previous Version | Text Only | Print | Product List | Glossary On
Versions: 1 2 3 4 5 6 7 8 9 10 11 12 13 14
000
FTUS45 KGJT 281311 AAA
TAFMTJ
TAF AMD
KMTJ 281311Z 2813/0112 33009KT P6SM VCSH BKN005 BKN040 OVC050
     FM281400 23004KT 1SM -SN OVC015
     FM281700 28008KT 1/2SM -SN FG OVC015
     FM281900 30011KT 1 1/2SM -SN BR OVC020
     FM282300 30013G22KT P6SM BKN035
     FM010200 28007KT P6SM SCT070
     FM010600 22006KT P6SM SCT250=

USA.gov is the U.S. government's official web portal to all federal, state and local government web resources and services.